Time;durP1;ratioP1;P1;durP2;ratioP2;P2;SDS_P1;SDS_P2;PMS_P1;PMS_P2;Temp;Humidity;BMP_temperature;BMP_pressure;BME280_temperature;BME280_humidity;BME280_pressure;Samples;Min_cycle;Max_cycle;Signal;HPM_P1;HPM_P2
2022/11/20 00:01:57;;;;;;;18.63;13.53;;;;;;;-0.71;100.00;101210.34;5252026;28;20029;-73
2022/11/20 00:04:28;;;;;;;17.20;12.87;;;;;;;-0.83;100.00;101193.28;5252010;28;20029;-72
2022/11/20 00:06:59;;;;;;;16.93;12.80;;;;;;;-0.79;100.00;101213.00;5250667;28;20068;-74
2022/11/20 00:09:30;;;;;;;19.63;12.33;;;;;;;-0.86;100.00;101212.19;5233460;28;20033;-74
2022/11/20 00:12:02;;;;;;;17.63;13.23;;;;;;;-0.92;100.00;101186.50;5249419;28;20049;-73
2022/11/20 00:14:33;;;;;;;16.27;12.43;;;;;;;-0.88;100.00;101217.34;5251778;28;20044;-73
2022/11/20 00:17:04;;;;;;;15.93;11.13;;;;;;;-0.85;100.00;101213.88;5251897;28;20052;-72
2022/11/20 00:19:36;;;;;;;16.47;12.40;;;;;;;-0.94;100.00;101209.66;5251924;28;20021;-74
2022/11/20 00:22:07;;;;;;;17.60;13.30;;;;;;;-0.94;100.00;101214.78;5252315;28;20029;-72
2022/11/20 00:24:38;;;;;;;16.53;12.57;;;;;;;-0.95;100.00;101204.50;5252384;28;20029;-74
2022/11/20 00:27:09;;;;;;;19.83;13.47;;;;;;;-1.01;100.00;101208.81;5256813;28;20035;-74
2022/11/20 00:29:41;;;;;;;18.43;14.20;;;;;;;-1.02;100.00;101196.84;5255425;28;20021;-73
2022/11/20 00:32:12;;;;;;;17.17;12.57;;;;;;;-0.92;100.00;101205.34;5256730;28;20029;-74
2022/11/20 00:34:43;;;;;;;17.03;12.63;;;;;;;-1.15;100.00;101200.34;5256287;28;20029;-72
2022/11/20 00:37:15;;;;;;;17.93;13.00;;;;;;;-1.05;100.00;101212.28;5256559;28;20021;-74
2022/11/20 00:39:46;;;;;;;20.37;13.63;;;;;;;-1.08;100.00;101209.72;5237868;28;20043;-73
2022/11/20 00:42:17;;;;;;;20.17;13.73;;;;;;;-1.12;100.00;101205.47;5255483;28;20104;-71
2022/11/20 00:44:49;;;;;;;19.03;13.57;;;;;;;-1.11;100.00;101202.03;5255595;28;20021;-75
2022/11/20 00:47:20;;;;;;;16.33;13.07;;;;;;;-1.09;100.00;101205.44;5254834;28;20626;-75
2022/11/20 00:49:51;;;;;;;18.03;14.13;;;;;;;-1.12;100.00;101201.16;5256250;28;20140;-75
2022/11/20 00:52:23;;;;;;;21.60;14.77;;;;;;;-1.21;100.00;101196.09;5255564;28;20033;-73
2022/11/20 00:54:54;;;;;;;21.67;16.20;;;;;;;-1.31;100.00;101192.72;5255139;28;20029;-72
2022/11/20 00:57:25;;;;;;;26.43;18.43;;;;;;;-1.23;100.00;101200.38;5238672;28;20162;-76
2022/11/20 00:59:57;;;;;;;23.60;18.10;;;;;;;-1.19;100.00;101208.94;5255021;28;20033;-76
2022/11/20 01:02:28;;;;;;;29.43;19.23;;;;;;;-1.29;100.00;101208.97;5256512;28;20025;-75
2022/11/20 01:04:59;;;;;;;27.80;19.37;;;;;;;-1.43;100.00;101196.16;5254871;28;20059;-75
2022/11/20 01:07:31;;;;;;;24.50;18.37;;;;;;;-1.41;100.00;101196.16;5256201;28;20047;-76
2022/11/20 01:10:03;;;;;;;29.00;17.73;;;;;;;-1.23;100.00;101205.50;5237430;28;20412;-73
2022/11/20 01:12:34;;;;;;;24.53;16.53;;;;;;;-1.39;100.00;101197.00;5254453;28;20032;-76
2022/11/20 01:15:06;;;;;;;22.93;16.47;;;;;;;-1.36;100.00;101199.56;5237999;28;20076;-77
2022/11/20 01:17:37;;;;;;;22.10;15.60;;;;;;;-1.48;100.00;101196.19;5255506;28;20041;-76
2022/11/20 01:20:09;;;;;;;24.17;17.17;;;;;;;-1.48;100.00;101201.34;5255238;28;20068;-75
2022/11/20 01:22:40;;;;;;;28.77;17.23;;;;;;;-1.51;100.00;101198.78;5256289;28;20033;-74
2022/11/20 01:25:12;;;;;;;33.50;19.57;;;;;;;-1.54;100.00;101203.94;5254514;28;20606;-76
2022/11/20 01:27:43;;;;;;;32.03;20.87;;;;;;;-1.25;100.00;101210.66;5256235;28;20414;-74
2022/11/20 01:30:14;;;;;;;29.20;19.33;;;;;;;-1.24;100.00;101208.97;5255917;28;20029;-72
2022/11/20 01:32:46;;;;;;;27.40;19.43;;;;;;;-1.42;100.00;101199.59;5240705;28;20446;-75
2022/11/20 01:35:17;;;;;;;27.70;19.00;;;;;;;-1.43;100.00;101200.47;5255988;28;20021;-72
2022/11/20 01:37:50;;;;;;;25.80;17.37;;;;;;;-1.49;100.00;101185.94;5254669;28;20025;-75
2022/11/20 01:40:21;;;;;;;30.27;20.47;;;;;;;-1.59;100.00;101187.69;5254249;28;20041;-74
2022/11/20 01:43:23;;;;;;;28.43;20.40;;;;;;;-1.44;100.00;101193.59;5255978;28;20039;-71
2022/11/20 01:46:16;;;;;;;25.83;17.83;;;;;;;-1.41;100.00;101202.16;5255972;28;20037;-75
2022/11/20 01:48:54;;;;;;;24.87;16.67;;;;;;;-1.51;100.00;101196.22;5251400;28;20021;-70
2022/11/20 01:51:30;;;;;;;22.60;14.80;;;;;;;-1.55;100.00;101197.06;5255147;28;20036;-75
2022/11/20 01:54:10;;;;;;;22.90;16.40;;;;;;;-1.55;100.00;101191.94;5233673;28;20551;-75
2022/11/20 01:56:44;;;;;;;23.03;15.13;;;;;;;-1.39;100.00;101202.16;5217216;28;20125;-75
2022/11/20 01:59:18;;;;;;;25.20;17.15;;;;;;;-1.42;100.00;101200.47;5254862;28;20128;-75
2022/11/20 02:01:49;;;;;;;20.10;14.60;;;;;;;-1.51;100.00;101197.91;5253928;28;20063;-75
2022/11/20 02:04:22;;;;;;;22.30;15.73;;;;;;;-1.31;100.00;101197.84;5254081;28;20045;-75
2022/11/20 02:06:59;;;;;;;19.87;14.77;;;;;;;-1.46;100.00;101188.47;5254583;28;20029;-71
2022/11/20 02:09:30;;;;;;;22.00;13.90;;;;;;;-1.58;100.00;101185.09;5254012;28;20412;-74
2022/11/20 02:12:03;;;;;;;23.23;15.37;;;;;;;-1.71;100.00;101191.97;5254623;28;20052;-73
2022/11/20 02:14:34;;;;;;;23.60;15.67;;;;;;;-1.66;100.00;101191.13;5255339;28;20025;-74
2022/11/20 02:17:05;;;;;;;21.03;14.80;;;;;;;-1.59;100.00;101185.13;5254283;28;20033;-75
2022/11/20 02:19:36;;;;;;;23.27;15.53;;;;;;;-1.66;100.00;101184.28;5255359;28;20044;-75
2022/11/20 02:22:18;;;;;;;25.60;15.43;;;;;;;-1.56;100.00;101185.09;5236326;28;20025;-71
2022/11/20 02:24:51;;;;;;;18.47;13.87;;;;;;;-1.67;100.00;101181.69;5236557;28;20544;-76
2022/11/20 02:27:22;;;;;;;21.47;15.20;;;;;;;-1.73;100.00;101172.31;5254547;28;20033;-75
2022/11/20 02:30:00;;;;;;;22.77;15.90;;;;;;;-1.70;100.00;101185.13;5254401;28;20044;-73
2022/11/20 02:32:34;;;;;;;20.80;14.43;;;;;;;-1.76;100.00;101178.31;5254768;28;20032;-73
2022/11/20 02:35:31;;;;;;;18.85;14.05;;;;;;;-1.57;100.00;101183.38;5236692;28;20345;-75
2022/11/20 02:38:02;;;;;;;17.97;13.40;;;;;;;-1.61;100.00;101174.84;5246301;28;20037;-73
2022/11/20 02:40:33;;;;;;;19.63;14.83;;;;;;;-1.51;100.00;101178.22;5254740;28;20021;-76
2022/11/20 02:43:05;;;;;;;18.57;14.00;;;;;;;-1.59;100.00;101177.41;5254729;28;20028;-76
2022/11/20 02:45:36;;;;;;;20.77;14.43;;;;;;;-1.61;100.00;101174.84;5255507;28;20161;-75
2022/11/20 02:48:08;;;;;;;19.70;15.07;;;;;;;-1.41;100.00;101184.19;5254301;28;20025;-75
2022/11/20 02:50:40;;;;;;;21.63;15.80;;;;;;;-1.30;100.00;101183.28;5254209;28;20037;-74
2022/11/20 02:53:11;;;;;;;21.00;15.47;;;;;;;-1.49;100.00;101191.06;5252972;28;20044;-76
2022/11/20 02:55:42;;;;;;;23.53;16.37;;;;;;;-1.27;100.00;101186.69;5254373;28;20291;-75
2022/11/20 02:58:14;;;;;;;23.67;15.97;;;;;;;-1.19;100.00;101183.22;5254005;28;20033;-76
2022/11/20 03:00:45;;;;;;;18.63;14.20;;;;;;;-1.39;100.00;101179.88;5254016;28;20040;-75
2022/11/20 03:03:16;;;;;;;20.70;15.90;;;;;;;-1.36;100.00;101176.44;5253425;28;20025;-74
2022/11/20 03:05:48;;;;;;;21.63;15.27;;;;;;;-1.40;100.00;101172.19;5253359;28;20154;-71
2022/11/20 03:08:19;;;;;;;20.67;15.37;;;;;;;-1.23;100.00;101167.81;5252833;28;20622;-72
2022/11/20 03:10:50;;;;;;;21.37;15.67;;;;;;;-1.29;100.00;101159.28;5252637;28;20059;-75
2022/11/20 03:13:22;;;;;;;20.80;14.53;;;;;;;-1.26;100.00;101170.41;5251640;28;20040;-75
2022/11/20 03:15:53;;;;;;;23.00;15.23;;;;;;;-1.28;100.00;101156.72;5253524;28;20024;-75
2022/11/20 03:18:27;;;;;;;21.67;15.50;;;;;;;-1.24;100.00;101168.66;5234981;28;20036;-75
2022/11/20 03:20:58;;;;;;;24.77;15.27;;;;;;;-1.40;100.00;101149.94;5235305;28;20033;-72
2022/11/20 03:23:31;;;;;;;19.27;14.53;;;;;;;-1.22;100.00;101164.38;5234979;28;20025;-74
2022/11/20 03:26:32;;;;;;;20.93;14.10;;;;;;;-1.13;100.00;101153.19;5252207;28;20024;-74
2022/11/20 03:29:04;;;;;;;18.10;13.90;;;;;;;-1.20;100.00;101166.09;5246225;28;20059;-71
2022/11/20 03:31:40;;;;;;;23.13;16.10;;;;;;;-1.07;100.00;101161.72;5234400;28;20496;-76
2022/11/20 03:34:12;;;;;;;21.90;14.93;;;;;;;-1.23;100.00;101161.81;5251143;28;20041;-75
2022/11/20 03:36:43;;;;;;;20.70;15.50;;;;;;;-1.21;100.00;101144.69;5252936;28;20120;-75
2022/11/20 03:39:14;;;;;;;22.27;16.20;;;;;;;-1.20;100.00;101151.53;5234124;28;20025;-74
2022/11/20 03:41:46;;;;;;;23.40;16.20;;;;;;;-1.22;100.00;101143.81;5252884;28;20037;-76
2022/11/20 03:44:21;;;;;;;22.87;16.23;;;;;;;-1.24;100.00;101140.41;5252739;28;20697;-72
2022/11/20 03:46:52;;;;;;;20.70;14.47;;;;;;;-1.33;100.00;101125.03;5252995;28;20036;-75
2022/11/20 03:49:23;;;;;;;20.57;15.27;;;;;;;-1.24;100.00;101145.53;5252636;28;20032;-75
2022/11/20 03:51:54;;;;;;;20.90;14.53;;;;;;;-1.36;100.00;101131.03;5253693;28;20040;-74
2022/11/20 03:54:26;;;;;;;22.23;15.80;;;;;;;-1.31;100.00;101130.19;5233894;28;20108;-72
2022/11/20 03:56:57;;;;;;;19.90;14.60;;;;;;;-1.32;100.00;101131.88;5253035;28;20040;-73
2022/11/20 03:59:28;;;;;;;21.67;15.77;;;;;;;-1.30;100.00;101127.59;5234143;28;20029;-75
2022/11/20 04:01:59;;;;;;;22.43;16.57;;;;;;;-1.40;100.00;101118.22;5251535;28;20036;-75
2022/11/20 04:04:31;;;;;;;21.67;15.10;;;;;;;-1.40;100.00;101118.22;5253337;28;20033;-76
2022/11/20 04:07:02;;;;;;;19.27;14.70;;;;;;;-1.26;100.00;101118.16;5252010;28;20040;-75
2022/11/20 04:09:33;;;;;;;29.30;17.20;;;;;;;-1.27;100.00;101106.16;5251614;28;20073;-74
2022/11/20 04:12:05;;;;;;;21.53;15.20;;;;;;;-1.31;100.00;101115.63;5250721;28;20365;-73
2022/11/20 04:14:36;;;;;;;21.93;16.57;;;;;;;-1.36;100.00;101125.03;5234728;28;20025;-74
2022/11/20 04:17:07;;;;;;;19.53;14.57;;;;;;;-1.39;100.00;101122.50;5252786;28;20029;-75
2022/11/20 04:19:39;;;;;;;24.83;15.77;;;;;;;-1.51;100.00;101123.41;5252460;28;20648;-72
2022/11/20 04:22:12;;;;;;;20.60;15.40;;;;;;;-1.36;100.00;101125.03;5252606;28;20039;-75
2022/11/20 04:24:43;;;;;;;21.93;15.40;;;;;;;-1.44;100.00;101116.53;5251113;28;20040;-74
2022/11/20 04:27:14;;;;;;;18.20;14.23;;;;;;;-1.53;100.00;101113.16;5252429;28;20033;-73
2022/11/20 04:29:45;;;;;;;24.83;16.00;;;;;;;-1.39;100.00;101117.34;5234878;28;20279;-75
2022/11/20 04:32:17;;;;;;;22.30;15.53;;;;;;;-1.55;100.00;101121.75;5251496;28;20086;-71
2022/11/20 04:34:48;;;;;;;22.33;14.90;;;;;;;-1.50;100.00;101105.41;5252146;28;20029;-76
2022/11/20 04:37:19;;;;;;;22.60;15.80;;;;;;;-1.29;100.00;101121.59;5234101;28;20082;-75
2022/11/20 04:39:50;;;;;;;21.77;16.27;;;;;;;-1.32;100.00;101101.03;5234211;28;20025;-75
2022/11/20 04:42:28;;;;;;;21.53;16.20;;;;;;;-1.23;100.00;101113.00;5233464;28;20036;-75
2022/11/20 04:44:59;;;;;;;20.10;14.67;;;;;;;-1.35;100.00;101106.22;5233828;28;20040;-76
2022/11/20 04:47:30;;;;;;;20.53;15.07;;;;;;;-1.40;100.00;101095.09;5252836;28;20479;-75
2022/11/20 04:50:02;;;;;;;21.37;15.17;;;;;;;-1.39;100.00;101107.94;5252118;28;20057;-74
2022/11/20 04:52:33;;;;;;;21.53;16.23;;;;;;;-1.37;100.00;101102.78;5252366;28;20037;-76
2022/11/20 04:55:05;;;;;;;23.33;15.57;;;;;;;-1.39;100.00;101104.50;5253135;28;20675;-76
2022/11/20 04:57:36;;;;;;;22.33;15.87;;;;;;;-1.55;100.00;101101.19;5252881;28;20059;-75
2022/11/20 05:00:08;;;;;;;20.50;15.57;;;;;;;-1.56;100.00;101107.16;5253230;28;20104;-74
2022/11/20 05:02:40;;;;;;;19.83;15.30;;;;;;;-1.56;100.00;101097.75;5251748;28;20036;-70
2022/11/20 05:05:11;;;;;;;22.87;16.87;;;;;;;-1.62;100.00;101069.50;5233301;28;20119;-76
2022/11/20 05:07:42;;;;;;;24.40;15.73;;;;;;;-1.54;100.00;101101.19;5249498;28;20039;-76
2022/11/20 05:10:14;;;;;;;24.43;16.20;;;;;;;-1.44;100.00;101101.09;5250846;28;20634;-75
2022/11/20 05:12:45;;;;;;;21.27;16.80;;;;;;;-1.47;100.00;101089.16;5254927;28;20376;-72
2022/11/20 05:15:17;;;;;;;26.77;16.67;;;;;;;-1.54;100.00;101090.03;5238431;28;20033;-75
2022/11/20 05:17:49;;;;;;;17.77;14.10;;;;;;;-1.39;100.00;101081.38;5255636;28;20029;-71
2022/11/20 05:20:20;;;;;;;18.77;13.63;;;;;;;-1.51;100.00;101082.31;5238668;28;20392;-75
2022/11/20 05:22:51;;;;;;;24.53;15.73;;;;;;;-1.55;100.00;101045.50;5254595;28;20032;-75
2022/11/20 05:25:23;;;;;;;19.27;14.90;;;;;;;-1.52;100.00;101075.47;5237553;28;20080;-74
2022/11/20 05:27:54;;;;;;;24.83;16.53;;;;;;;-1.47;100.00;101076.31;5255604;28;20644;-76
2022/11/20 05:30:25;;;;;;;22.70;15.90;;;;;;;-1.50;100.00;101077.16;5253476;28;20044;-73
2022/11/20 05:32:57;;;;;;;22.03;16.60;;;;;;;-1.49;100.00;101078.88;5256252;28;20033;-74
2022/11/20 05:35:28;;;;;;;22.93;17.40;;;;;;;-1.48;100.00;101074.56;5255219;28;20033;-76
2022/11/20 05:37:59;;;;;;;22.13;15.23;;;;;;;-1.52;100.00;101076.31;5255088;28;20021;-75
2022/11/20 05:40:31;;;;;;;20.93;15.63;;;;;;;-1.44;100.00;101076.28;5255597;28;20021;-74
2022/11/20 05:43:02;;;;;;;25.70;16.10;;;;;;;-1.64;100.00;101061.00;5255699;28;20033;-74
2022/11/20 05:45:33;;;;;;;21.83;16.00;;;;;;;-1.49;100.00;101084.03;5255795;28;20056;-76
2022/11/20 05:48:04;;;;;;;27.57;17.80;;;;;;;-1.53;100.00;101079.75;5255037;28;20025;-72
2022/11/20 05:50:36;;;;;;;22.73;17.07;;;;;;;-1.47;100.00;101087.41;5255912;28;20091;-76
2022/11/20 05:53:07;;;;;;;24.07;16.90;;;;;;;-1.53;100.00;101097.72;5254246;28;20029;-76
2022/11/20 05:55:38;;;;;;;23.87;16.97;;;;;;;-1.41;100.00;101099.38;5255607;28;20041;-75
2022/11/20 05:58:10;;;;;;;23.43;18.03;;;;;;;-1.43;100.00;101097.69;5255258;28;20029;-74
2022/11/20 06:00:41;;;;;;;23.40;17.43;;;;;;;-1.42;100.00;101100.25;5255638;28;20043;-73
2022/11/20 06:03:12;;;;;;;26.67;19.33;;;;;;;-1.34;100.00;101100.19;5237017;28;20143;-75
2022/11/20 06:05:43;;;;;;;27.60;18.17;;;;;;;-1.39;100.00;101094.22;5255538;28;20636;-75
2022/11/20 06:08:15;;;;;;;28.27;19.87;;;;;;;-1.22;100.00;101112.97;5253346;28;20103;-75
2022/11/20 06:10:46;;;;;;;29.50;20.43;;;;;;;-1.11;100.00;101112.91;5236961;28;20048;-76
2022/11/20 06:13:17;;;;;;;24.70;17.83;;;;;;;-1.04;100.00;101111.16;5254833;28;20025;-72
2022/11/20 06:15:53;;;;;;;23.10;16.67;;;;;;;-1.09;100.00;101100.03;5255103;28;20017;-75
2022/11/20 06:18:28;;;;;;;21.23;16.40;;;;;;;-0.98;100.00;101105.94;5254734;28;20071;-75
2022/11/20 06:21:08;;;;;;;25.80;17.97;;;;;;;-0.95;100.00;101097.38;5254518;28;20392;-75
2022/11/20 06:23:40;;;;;;;24.00;17.63;;;;;;;-1.05;100.00;101095.75;5253386;28;20298;-75
2022/11/20 06:26:15;;;;;;;22.47;16.70;;;;;;;-1.03;100.00;101094.00;5236552;28;20605;-74
2022/11/20 06:28:47;;;;;;;25.73;18.90;;;;;;;-0.91;100.00;101093.06;5244100;28;20102;-75
2022/11/20 06:31:20;;;;;;;22.70;17.70;;;;;;;-0.88;100.00;101099.03;5235615;28;20033;-74
2022/11/20 06:33:52;;;;;;;24.80;17.67;;;;;;;-0.91;100.00;101095.63;5254006;28;20029;-75
2022/11/20 06:36:24;;;;;;;24.30;19.20;;;;;;;-0.91;100.00;101093.91;5269384;28;20518;-77
2022/11/20 06:38:55;;;;;;;23.63;18.10;;;;;;;-0.85;100.00;101103.28;5251950;28;20037;-72
2022/11/20 06:41:28;;;;;;;23.83;18.30;;;;;;;-0.83;100.00;101095.56;5253104;28;20112;-74
2022/11/20 06:43:59;;;;;;;23.83;18.33;;;;;;;-0.88;100.00;101082.75;5254512;28;20037;-72
2022/11/20 06:46:30;;;;;;;26.53;20.30;;;;;;;-0.74;100.00;101093.78;5253778;28;20037;-75
2022/11/20 06:49:02;;;;;;;27.20;20.77;;;;;;;-0.82;100.00;101089.56;5253019;28;20025;-75
2022/11/20 06:51:33;;;;;;;25.07;19.97;;;;;;;-1.01;100.00;101069.97;5252739;28;20035;-75
2022/11/20 06:54:05;;;;;;;25.73;19.70;;;;;;;-0.89;100.00;101081.06;5235370;28;20068;-73
2022/11/20 06:56:36;;;;;;;28.53;20.93;;;;;;;-0.86;100.00;101078.44;5253615;28;20029;-75
2022/11/20 06:59:07;;;;;;;29.10;19.63;;;;;;;-0.94;100.00;101088.78;5254025;28;20499;-71
2022/11/20 07:01:38;;;;;;;26.93;18.87;;;;;;;-0.91;100.00;101082.78;5254223;28;20546;-76
2022/11/20 07:04:10;;;;;;;24.23;19.03;;;;;;;-0.92;100.00;101081.06;5252603;28;20033;-75
2022/11/20 07:06:41;;;;;;;23.67;18.27;;;;;;;-1.01;100.00;101072.56;5256452;28;20029;-76
2022/11/20 07:09:12;;;;;;;24.97;18.30;;;;;;;-0.92;100.00;101096.47;5237501;28;20065;-76
2022/11/20 07:11:44;;;;;;;25.37;18.77;;;;;;;-0.93;100.00;101089.66;5254042;28;20048;-75
2022/11/20 07:14:15;;;;;;;24.63;17.93;;;;;;;-0.97;100.00;101083.66;5253024;28;20048;-76
2022/11/20 07:16:46;;;;;;;25.87;20.30;;;;;;;-0.89;100.00;101075.91;5253463;28;20035;-71
2022/11/20 07:19:17;;;;;;;25.13;20.03;;;;;;;-0.92;100.00;101068.19;5253507;28;20105;-73
2022/11/20 07:21:49;;;;;;;25.13;19.37;;;;;;;-0.86;100.00;101075.88;5253789;28;20041;-76
2022/11/20 07:24:20;;;;;;;25.43;19.27;;;;;;;-0.82;100.00;101077.53;5252978;28;20433;-75
2022/11/20 07:26:51;;;;;;;25.27;19.70;;;;;;;-0.81;100.00;101073.25;5252823;28;20079;-75
2022/11/20 07:29:22;;;;;;;27.13;19.93;;;;;;;-0.81;100.00;101061.25;5252155;28;20044;-74
2022/11/20 07:31:55;;;;;;;26.77;21.10;;;;;;;-0.82;100.00;101071.56;5251962;28;20043;-76
2022/11/20 07:34:26;;;;;;;26.17;20.27;;;;;;;-0.76;100.00;101074.06;5233699;28;20043;-75
2022/11/20 07:36:57;;;;;;;26.63;20.27;;;;;;;-0.76;100.00;101069.78;5252403;28;20028;-75
2022/11/20 07:39:29;;;;;;;25.20;19.67;;;;;;;-0.78;100.00;101053.50;5251043;28;20033;-75
2022/11/20 07:42:00;;;;;;;28.30;20.90;;;;;;;-0.71;100.00;101054.31;5252321;28;20036;-75
2022/11/20 07:44:31;;;;;;;27.03;19.63;;;;;;;-0.66;100.00;101064.53;5252237;28;20503;-76
2022/11/20 07:47:03;;;;;;;28.57;20.93;;;;;;;-0.68;100.00;101059.41;5253059;28;20372;-72
2022/11/20 07:49:34;;;;;;;23.63;18.57;;;;;;;-0.61;100.00;101065.34;5267329;28;20032;-76
2022/11/20 07:52:05;;;;;;;23.87;17.83;;;;;;;-0.62;100.00;101063.66;5252003;28;20060;-76
2022/11/20 07:54:37;;;;;;;21.60;17.70;;;;;;;-0.54;100.00;101069.56;5252608;28;20033;-75
2022/11/20 07:57:08;;;;;;;21.30;16.67;;;;;;;-0.71;100.00;101074.03;5252514;28;20086;-75
2022/11/20 07:59:39;;;;;;;27.83;16.87;;;;;;;-0.58;100.00;101070.50;5250497;28;20033;-73
2022/11/20 08:02:11;;;;;;;22.87;17.17;;;;;;;-0.55;100.00;101078.19;5239701;28;20029;-75
2022/11/20 08:04:42;;;;;;;23.77;18.17;;;;;;;-0.50;100.00;101078.13;5234791;28;20024;-75
2022/11/20 08:07:14;;;;;;;22.07;16.70;;;;;;;-0.52;100.00;101074.72;5251396;28;20033;-75
2022/11/20 08:09:45;;;;;;;23.80;18.47;;;;;;;-0.53;100.00;101070.44;5252499;28;20071;-75
2022/11/20 08:15:10;;;;;;;25.37;16.13;;;;;;;-0.43;100.00;101066.03;5252467;28;20486;-75
2022/11/20 08:17:41;;;;;;;22.17;17.23;;;;;;;-0.40;100.00;101061.72;5252665;28;20060;-73
2022/11/20 08:20:12;;;;;;;23.40;17.10;;;;;;;-0.45;100.00;101072.94;5252564;28;20036;-74
2022/11/20 08:22:44;;;;;;;24.20;19.17;;;;;;;-0.40;100.00;101072.00;5251621;28;20107;-71
2022/11/20 08:25:15;;;;;;;25.77;17.97;;;;;;;-0.27;100.00;101072.75;5233488;28;20062;-73
2022/11/20 08:27:46;;;;;;;22.70;17.73;;;;;;;-0.17;100.00;101077.78;5228665;28;20052;-74
2022/11/20 08:30:18;;;;;;;26.23;17.53;;;;;;;-0.19;100.00;101064.09;5250727;28;20029;-71
2022/11/20 08:32:49;;;;;;;24.27;18.37;;;;;;;-0.06;100.00;101067.38;5252766;28;20043;-72
2022/11/20 08:35:21;;;;;;;24.00;17.63;;;;;;;-0.05;100.00;101067.34;5235095;28;20452;-74
2022/11/20 08:37:53;;;;;;;23.73;17.47;;;;;;;0.03;100.00;101063.84;5243431;28;20031;-74
2022/11/20 08:40:24;;;;;;;24.07;16.90;;;;;;;0.13;100.00;101062.84;5252068;28;20029;-73
2022/11/20 08:42:55;;;;;;;24.90;17.30;;;;;;;0.11;100.00;101054.28;5252715;28;20021;-75
2022/11/20 08:45:26;;;;;;;25.63;18.67;;;;;;;0.27;100.00;101062.69;5252405;28;20029;-71
2022/11/20 08:48:02;;;;;;;23.97;18.50;;;;;;;0.35;100.00;101070.28;5256887;28;20333;-71
2022/11/20 08:50:34;;;;;;;29.27;21.13;;;;;;;0.31;100.00;101063.50;5255991;28;20107;-76
2022/11/20 08:53:05;;;;;;;29.63;21.20;;;;;;;0.47;100.00;101062.41;5254909;28;20068;-72
2022/11/20 08:55:36;;;;;;;25.43;19.37;;;;;;;0.56;100.00;101065.75;5238520;28;20515;-75
2022/11/20 08:58:08;;;;;;;25.07;19.77;;;;;;;0.58;100.00;101069.97;5237273;28;20029;-75
2022/11/20 09:00:40;;;;;;;23.43;18.30;;;;;;;0.51;100.00;101054.66;5255898;28;20029;-74
2022/11/20 09:03:13;;;;;;;28.67;20.03;;;;;;;0.62;100.00;101052.75;5256188;28;20060;-74
2022/11/20 09:05:44;;;;;;;26.10;18.07;;;;;;;0.68;100.00;101055.22;5255968;28;20029;-73
2022/11/20 09:08:16;;;;;;;25.40;17.90;;;;;;;0.78;100.00;101053.38;5253867;28;20059;-76
2022/11/20 09:10:51;;;;;;;23.17;16.80;;;;;;;0.76;100.00;101037.06;5237072;28;20037;-72
2022/11/20 09:13:24;;;;;;;26.03;19.07;;;;;;;0.84;100.00;101050.69;5251862;28;20025;-72
2022/11/20 09:16:01;;;;;;;26.30;17.60;;;;;;;0.94;100.00;101053.97;5256666;28;20468;-75
2022/11/20 09:18:33;;;;;;;25.23;19.27;;;;;;;0.95;100.00;101041.94;5254676;28;20025;-75
2022/11/20 09:21:10;;;;;;;25.37;17.63;;;;;;;1.06;100.00;101047.78;5238329;28;20593;-76
2022/11/20 09:23:41;;;;;;;27.97;19.43;;;;;;;1.07;100.00;101043.44;5237785;28;20138;-74
2022/11/20 09:26:13;;;;;;;32.83;22.20;;;;;;;1.02;100.00;101035.78;5255796;28;20115;-75
2022/11/20 09:28:45;;;;;;;28.97;19.83;;;;;;;1.06;100.00;101031.44;5256157;28;20056;-75
2022/11/20 09:31:24;;;;;;;32.07;21.77;;;;;;;1.12;100.00;101026.16;5255488;28;20064;-73
2022/11/20 09:33:55;;;;;;;31.07;20.13;;;;;;;1.13;100.00;101033.03;5256005;28;20048;-75
2022/11/20 09:36:27;;;;;;;33.77;21.73;;;;;;;1.22;100.00;101029.47;5255737;28;20079;-74
2022/11/20 09:38:58;;;;;;;38.77;24.43;;;;;;;1.24;100.00;101019.09;5252807;28;20047;-75
2022/11/20 09:41:45;;;;;;;39.17;24.23;;;;;;;1.23;100.00;101002.75;5254774;28;20036;-72
2022/11/20 09:44:41;;;;;;;42.67;27.20;;;;;;;1.35;100.00;101011.16;5243361;28;20021;-75
2022/11/20 09:47:23;;;;;;;42.53;25.60;;;;;;;1.13;100.00;100999.50;5254927;28;20021;-75
2022/11/20 09:50:21;;;;;;;55.00;29.43;;;;;;;1.18;100.00;101010.59;5254687;28;20037;-75
2022/11/20 09:53:08;;;;;;;48.47;27.63;;;;;;;1.27;100.00;101014.75;5246722;28;20052;-76
2022/11/20 09:55:40;;;;;;;49.00;26.63;;;;;;;1.32;100.00;100996.59;5253918;28;20510;-74
2022/11/20 09:58:55;;;;;;;48.80;29.30;;;;;;;1.40;100.00;101007.59;5254123;28;20029;-74
2022/11/20 10:01:31;;;;;;;57.20;29.53;;;;;;;1.39;100.00;100994.72;5231660;28;20479;-75
2022/11/20 10:04:06;;;;;;;47.63;29.57;;;;;;;1.37;100.00;100984.44;5235160;28;20559;-74
2022/11/20 10:06:44;;;;;;;43.88;25.75;;;;;;;1.51;100.00;100985.91;5253401;28;20072;-73
2022/11/20 10:09:28;;;;;;;44.43;24.50;;;;;;;1.42;100.00;100969.72;5253455;28;20039;-73
2022/11/20 10:12:14;;;;;;;44.78;26.83;;;;;;;1.41;100.00;100974.91;5264561;28;20053;-71
2022/11/20 10:14:58;;;;;;;45.53;25.90;;;;;;;1.37;100.00;100958.63;5254170;28;20029;-73
2022/11/20 10:17:44;;;;;;;43.10;27.92;;;;;;;1.37;100.00;100962.94;5253091;28;20532;-72
2022/11/20 10:20:16;;;;;;;45.93;27.87;;;;;;;1.37;100.00;100943.16;5248478;28;20040;-73
2022/11/20 10:23:24;;;;;;;44.30;26.10;;;;;;;1.48;100.00;100931.75;5253119;28;20047;-71
2022/11/20 10:26:01;;;;;;;47.93;27.50;;;;;;;1.53;100.00;100928.22;5254188;28;20799;-70
2022/11/20 10:28:38;;;;;;;48.30;26.20;;;;;;;1.61;100.00;100927.19;5252591;28;20095;-73
2022/11/20 10:31:23;;;;;;;50.30;28.80;;;;;;;1.65;100.00;100934.84;5253306;28;20044;-73
2022/11/20 10:33:59;;;;;;;47.37;26.57;;;;;;;1.63;100.00;100912.50;5254356;28;20468;-72
2022/11/20 10:36:36;;;;;;;49.73;30.27;;;;;;;1.70;100.00;100911.50;5253191;28;20291;-72
2022/11/20 10:39:19;;;;;;;49.70;28.73;;;;;;;1.71;100.00;100907.19;5254105;28;20148;-73
2022/11/20 10:41:53;;;;;;;49.57;29.77;;;;;;;1.67;100.00;100903.84;5249121;28;20033;-74
2022/11/20 10:47:19;;;;;;;42.60;28.73;;;;;;;1.81;100.00;100896.63;5251176;28;20044;-75
2022/11/20 10:49:53;;;;;;;46.23;29.23;;;;;;;1.87;100.00;100895.63;5253608;28;20448;-72
2022/11/20 10:52:52;;;;;;;49.33;31.00;;;;;;;1.76;100.00;100882.13;5251457;28;20033;-75
2022/11/20 10:55:38;;;;;;;48.47;30.40;;;;;;;1.80;100.00;100882.00;5225439;28;20510;-74
2022/11/20 10:58:19;;;;;;;46.87;30.60;;;;;;;1.78;100.00;100881.19;5252581;28;20025;-74
2022/11/20 11:00:51;;;;;;;49.37;31.30;;;;;;;1.64;100.00;100853.09;5253262;28;20108;-75
2022/11/20 11:03:27;;;;;;;49.03;30.93;;;;;;;1.72;100.00;100865.00;5235748;28;20124;-71
2022/11/20 11:06:25;;;;;;;49.73;30.37;;;;;;;1.79;100.00;100867.41;5251338;28;20376;-71
2022/11/20 11:09:03;;;;;;;50.43;32.77;;;;;;;1.85;100.00;100868.16;5243348;28;20036;-73
2022/11/20 11:11:34;;;;;;;56.57;34.40;;;;;;;1.82;100.00;100850.97;5252095;28;20135;-76
2022/11/20 11:14:12;;;;;;;57.83;36.90;;;;;;;1.91;100.00;100858.53;5252325;28;20044;-74
2022/11/20 11:16:55;;;;;;;56.87;34.03;;;;;;;2.08;100.00;100853.84;5234208;28;20064;-73
2022/11/20 11:19:26;;;;;;;52.73;33.77;;;;;;;2.16;100.00;100859.69;5252037;28;20021;-76
2022/11/20 11:21:58;;;;;;;45.40;30.20;;;;;;;2.17;100.00;100851.88;5252384;28;20033;-72
2022/11/20 11:24:30;;;;;;;48.30;35.57;;;;;;;2.16;100.00;100855.34;5252856;28;20033;-77
2022/11/20 11:27:06;;;;;;;54.13;35.40;;;;;;;2.20;100.00;100855.28;5234998;28;20069;-78
2022/11/20 11:29:37;;;;;;;51.17;31.83;;;;;;;2.29;100.00;100855.03;5251950;28;20115;-73
2022/11/20 11:32:21;;;;;;;54.77;34.83;;;;;;;2.27;100.00;100836.16;5251889;28;20039;-75
2022/11/20 11:35:04;;;;;;;53.07;33.63;;;;;;;2.29;100.00;100849.88;5233282;28;20364;-76
2022/11/20 11:37:38;;;;;;;56.10;33.97;;;;;;;2.32;100.00;100836.91;5232754;28;20040;-73
2022/11/20 11:40:11;;;;;;;50.50;33.40;;;;;;;2.30;100.00;100825.75;5249108;28;20066;-73